• Join FlightAware (Why Join?)
  • Login
  • US Flag 
10:14AM EDT


 

Airport Tracker/Info


-or-


 

Live Flight TrackerFlight Track Log ✈ SKW5638 ✈ 14-May-2013 ✈ KSFO - KSBA

Flight Track Log - Related Links

Times and Time Zones

All times are in EDT time to prevent confusion due to time zone crossing. See the SKW5638 flight status page for this flight to view local times or setup timezone preferences in your user account.

Time Position Orientation Groundspeed Altitude Reporting Facility
EDT Latitude Longitude Course Direction KTS MPH feet Rate Location/Type
07:26PM 37.6333 -122.4000 208° Southwest 129 148 1,600  Level Northern Cal TRACON
07:27PM 37.6500 -122.4500 293° West 164 189 3,000 1,320 Climbing Northern Cal TRACON
07:28PM 37.6333 -122.5000 247° West 216 249 4,300 1,260 Climbing Northern Cal TRACON
07:28PM 37.6078 -122.5003 180° South 187 215 5,100 1,440 Climbing Oakland Center
07:29PM 37.4877 -122.4561 202° Southwest  Level FlightAware Approximate
07:29PM 37.5511 -122.4961 177° South 204 235 6,700  Level Oakland Center
07:30PM 37.4015 -122.4910 202° Southwest  Level FlightAware Approximate
07:31PM 37.3162 -122.5392 208° Southwest  Level FlightAware Approximate
07:31PM 37.4839 -122.4867 174° South 209 241 8,500  Level Oakland Center
07:32PM 37.4239 -122.4775 173° South 213 245 10,100 1,560 Climbing Oakland Center
07:33PM 37.3592 -122.4728 177° South 217 250 11,700 1,380 Climbing Oakland Center
07:34PM 37.3017 -122.4669 175° South 218 251 13,000 1,320 Climbing Oakland Center
07:35PM 37.2358 -122.4575 173° South 223 257 14,500 1,260 Climbing Oakland Center
07:36PM 37.1725 -122.4506 175° South 226 260 15,700 1,020 Climbing Oakland Center
07:37PM 37.1108 -122.4453 176° South 232 267 16,600 960 Climbing Oakland Center
07:38PM 37.0411 -122.3947 150° Southeast 248 285 17,700 960 Climbing Oakland Center
07:39PM 36.9861 -122.3461 145° Southeast 245 282 18,600 720 Climbing Oakland Center
07:40PM 36.9281 -122.2969 146° Southeast 249 287 19,200 600 Climbing Oakland Center
07:41PM 36.8683 -122.2447 145° Southeast 258 297 19,900 660 Climbing Oakland Center
07:42PM 36.8039 -122.1875 145° Southeast 266 306 20,600 660 Climbing Oakland Center
07:43PM 36.7461 -122.1378 145° Southeast 269 310 21,300 600 Climbing Oakland Center
07:44PM 36.6858 -122.0831 144° Southeast 268 308 21,900 600 Climbing Oakland Center
07:45PM 36.6250 -122.0289 144° Southeast 269 310 22,600 540 Climbing Oakland Center
07:46PM 36.5631 -121.9758 145° Southeast 270 311 23,000 180 Climbing Oakland Center
07:47PM 36.4961 -121.9178 145° Southeast 289 333 23,000  Level Oakland Center
07:48PM 36.4150 -121.8431 143° Southeast 301 346 23,000  Level Oakland Center
07:49PM 36.3436 -121.7822 146° Southeast 306 352 23,000  Level Oakland Center
07:50PM 36.2714 -121.7192 145° Southeast 314 361 23,000  Level Oakland Center
07:51PM 36.2025 -121.6494 141° Southeast 319 367 23,000  Level Oakland Center
07:52PM 36.1308 -121.5822 143° Southeast 321 369 23,000  Level Oakland Center
07:53PM 36.0603 -121.5139 142° Southeast 323 372 23,000  Level Oakland Center
07:54PM 35.9897 -121.4467 142° Southeast 321 369 23,000  Level Oakland Center
07:55PM 35.9183 -121.3792 143° Southeast 323 372 23,000  Level Oakland Center
07:56PM 35.8472 -121.3125 143° Southeast 322 371 23,000  Level Oakland Center
07:57PM 35.7761 -121.2456 143° Southeast 323 372 23,000  Level Oakland Center
07:58PM 35.6914 -121.1656 143° Southeast 321 369 23,000  Level Oakland Center
07:59PM 35.6203 -121.0983 142° Southeast 322 371 23,000  Level Oakland Center
08:00PM 35.5494 -121.0319 143° Southeast 322 371 23,000  Level Oakland Center
08:01PM 35.4781 -120.9644 142° Southeast 324 373 23,000  Level Oakland Center
08:02PM 35.4064 -120.8986 143° Southeast 323 372 23,000  Level Oakland Center
08:03PM 35.3361 -120.8325 142° Southeast 321 369 23,000 -360 Level Oakland Center
08:04PM 35.3044 -120.8069 147° Southeast 323 372 22,500 -1,200 Descending Los Angeles Center
08:05PM 35.2114 -120.7178 142° Southeast 347 399 21,200 -1,080 Descending Los Angeles Center
08:06PM 35.1319 -120.6461 144° Southeast 353 406 20,300 -960 Descending Los Angeles Center
08:07PM 35.0536 -120.5736 143° Southeast 353 406 19,300 -1,020 Descending Los Angeles Center
08:08PM 34.9778 -120.5025 142° Southeast 344 396 18,200 -1,260 Descending Los Angeles Center
08:09PM 34.9044 -120.4333 142° Southeast 333 383 16,700 -1,440 Descending Los Angeles Center
08:10PM 34.8325 -120.3653 142° Southeast 326 375 15,300 -1,380 Descending Los Angeles Center
08:11PM 34.7611 -120.3008 143° Southeast 320 368 13,900 -1,800 Descending Los Angeles Center
08:12PM 34.6747 -120.2253 144° Southeast 307 353 11,600 -2,100 Descending Los Angeles Center
08:12PM 34.6481 -120.2025 145° Southeast 303 349 10,900 -1,800 Descending Los Angeles Center
08:13PM 34.5994 -120.1525 140° Southeast 297 342 9,400 -1,680 Descending Los Angeles Center
08:14PM 34.5236 -120.0844 144° Southeast 267 307 7,500 -1,560 Descending Los Angeles Center
08:15PM 34.4700 -120.0403 146° Southeast 241 277 6,000 -1,620 Descending Los Angeles Center
08:16PM 34.4183 -119.9917 142° Southeast 243 280 4,400 -1,320 Descending Los Angeles Center
08:17PM 34.4142 -119.9872 139° Southeast 242 278 4,300 -1,320 Descending Los Angeles Center
08:17PM 34.3819 -119.9253 122° Southeast 230 265 3,100 -1,500 Descending Los Angeles Center
08:18PM 34.3725 -119.9106 128° Southeast 235 270 2,800 -1,020 Descending Los Angeles Center
08:18PM 34.3764 -119.8514 85° East 210 242 2,100 -720 Descending Los Angeles Center
08:19PM 34.3764 -119.8369 90° East 222 255 2,100 -540 Level Los Angeles Center
08:19PM 34.3883 -119.7981 70° East 177 204 1,600 -720 Descending Los Angeles Center
08:20PM 34.3994 -119.7958 North 200 230 1,400 -1,020 Descending Los Angeles Center
08:20PM 34.4269 -119.8064 342° North 140 161 600 -780 Descending Los Angeles Center
08:21PM 34.4378 -119.8103 344° North 168 193 600  Level Los Angeles Center